Time;durP1;ratioP1;P1;durP2;ratioP2;P2;SDS_P1;SDS_P2;PMS_P1;PMS_P2;Temp;Humidity;BMP_temperature;BMP_pressure;BME280_temperature;BME280_humidity;BME280_pressure;Samples;Min_cycle;Max_cycle;Signal;HPM_P1;HPM_P2
2022/09/04 00:00:00;;;;;;;4.90;1.65;;;;;;;19.26;41.18;99786.03;5072321;28;20049;-62
2022/09/04 00:02:33;;;;;;;4.82;3.92;;;;;;;19.29;41.42;99791.09;5071266;28;20503;-63
2022/09/04 00:05:14;;;;;;;4.38;3.20;;;;;;;19.31;41.24;99796.25;5072658;28;20044;-62
2022/09/04 00:08:01;;;;;;;3.63;2.13;;;;;;;19.33;41.14;99792.47;5071274;28;20127;-62
2022/09/04 00:10:54;;;;;;;3.28;1.63;;;;;;;19.32;40.60;99803.31;5070883;28;20603;-63
2022/09/04 00:13:32;;;;;;;;;;;;;;;19.35;39.84;99803.84;5071262;28;20045;-63
2022/09/04 00:16:49;;;;;;;4.95;1.48;;;;;;;19.35;40.61;99811.84;5071764;28;19974;-63
2022/09/04 00:19:30;;;;;;;1.92;1.35;;;;;;;19.36;40.75;99804.72;5056423;28;20061;-63
2022/09/04 00:21:58;;;;;;;1.75;1.27;;;;;;;19.37;40.39;99799.19;5072204;28;20048;-62
2022/09/04 00:24:38;;;;;;;4.22;1.38;;;;;;;19.32;40.47;99801.47;5070920;28;20040;-62
2022/09/04 00:27:31;;;;;;;1.27;1.10;;;;;;;19.33;40.31;99802.31;5070928;28;20051;-63
2022/09/04 00:30:12;;;;;;;2.58;1.45;;;;;;;19.35;40.59;99795.84;5071803;28;20669;-64
2022/09/04 00:32:58;;;;;;;3.83;1.42;;;;;;;19.40;40.47;99792.75;5072077;28;20072;-63
2022/09/04 00:35:39;;;;;;;3.25;1.25;;;;;;;19.40;40.27;99803.44;5071924;28;20102;-64
2022/09/04 00:38:18;;;;;;;3.33;1.40;;;;;;;19.43;40.43;99811.13;5070400;28;20052;-61
2022/09/04 00:41:06;;;;;;;2.05;1.52;;;;;;;19.45;40.29;99811.84;5070591;28;20048;-63
2022/09/04 00:43:55;;;;;;;2.90;1.33;;;;;;;19.51;40.21;99810.44;5071721;28;20052;-63
2022/09/04 00:46:41;;;;;;;1.42;1.13;;;;;;;19.52;40.28;99814.78;5070133;28;20052;-63
2022/09/04 00:49:32;;;;;;;4.40;1.50;;;;;;;19.55;39.94;99810.97;5071118;28;20060;-61
2022/09/04 00:52:23;;;;;;;2.63;1.20;;;;;;;19.60;40.32;99814.03;5071599;28;20409;-64
2022/09/04 00:55:43;;;;;;;4.97;1.70;;;;;;;19.60;39.66;99809.56;5071548;28;20049;-62
2022/09/04 00:58:51;;;;;;;2.30;1.50;;;;;;;19.62;40.18;99810.25;5050767;28;20052;-63
2022/09/04 01:01:23;;;;;;;1.23;1.13;;;;;;;19.66;40.62;99818.78;5071452;28;20052;-62
2022/09/04 01:04:23;;;;;;;1.48;1.38;;;;;;;19.66;40.89;99819.66;5069765;28;20400;-62
2022/09/04 01:07:22;;;;;;;2.05;1.00;;;;;;;19.65;40.77;99817.97;5032522;28;20114;-63
2022/09/04 01:10:15;;;;;;;2.83;1.20;;;;;;;19.66;41.07;99819.66;5071013;28;20064;-64
2022/09/04 01:13:07;;;;;;;1.73;1.40;;;;;;;19.64;41.04;99831.47;5070880;28;20052;-63
2022/09/04 01:15:45;;;;;;;1.50;1.13;;;;;;;19.61;41.00;99832.59;5071062;28;20049;-63
2022/09/04 01:18:17;;;;;;;1.48;1.05;;;;;;;19.62;41.07;99839.63;5070943;28;20045;-63
2022/09/04 01:20:55;;;;;;;2.30;1.40;;;;;;;19.57;41.37;99843.69;5071189;28;20060;-62
2022/09/04 01:23:42;;;;;;;2.78;1.42;;;;;;;19.53;41.77;99835.16;5069538;28;20068;-64
2022/09/04 01:26:43;;;;;;;1.52;1.20;;;;;;;19.49;41.43;99842.59;5069654;28;20048;-62
2022/09/04 01:29:10;;;;;;;4.20;1.80;;;;;;;19.52;41.53;99842.28;5070778;28;20052;-63
2022/09/04 01:32:08;;;;;;;2.40;1.30;;;;;;;19.42;41.51;99843.31;5069467;28;20060;-63
2022/09/04 01:34:58;;;;;;;3.03;1.20;;;;;;;19.40;41.58;99844.28;5070920;28;20048;-62
2022/09/04 01:37:57;;;;;;;1.88;1.42;;;;;;;19.37;42.09;99849.09;5067543;28;20044;-64
2022/09/04 01:40:45;;;;;;;1.98;1.50;;;;;;;19.34;42.37;99842.22;5047987;28;20040;-64
2022/09/04 01:43:17;;;;;;;2.22;1.42;;;;;;;19.34;42.64;99842.22;5069156;28;20054;-64
2022/09/04 01:46:03;;;;;;;3.42;1.45;;;;;;;19.27;42.31;99835.75;5068392;28;20082;-62
2022/09/04 01:48:35;;;;;;;2.90;1.63;;;;;;;19.24;42.13;99839.53;5068093;28;20094;-63
2022/09/04 01:51:11;;;;;;;4.82;1.52;;;;;;;19.22;42.50;99838.00;5069083;28;20053;-62
2022/09/04 01:53:45;;;;;;;4.68;1.20;;;;;;;19.17;42.76;99832.25;5069627;28;20058;-63
2022/09/04 01:56:20;;;;;;;4.10;1.40;;;;;;;19.13;42.80;99840.53;5070359;28;20063;-62
2022/09/04 01:59:05;;;;;;;1.90;1.48;;;;;;;19.09;43.11;99830.28;5068717;28;20071;-63
2022/09/04 02:01:46;;;;;;;2.50;1.30;;;;;;;19.09;43.58;99838.28;5069530;28;20053;-63
2022/09/04 02:04:27;;;;;;;5.88;1.52;;;;;;;19.04;43.51;99837.84;5069254;28;20090;-62
2022/09/04 02:07:18;;;;;;;3.25;1.33;;;;;;;19.03;43.47;99831.69;5070519;28;20078;-63
2022/09/04 02:10:12;;;;;;;3.55;1.50;;;;;;;18.98;44.09;99832.09;5070125;28;20049;-63
2022/09/04 02:12:49;;;;;;;3.42;1.45;;;;;;;18.95;42.87;99834.19;5069788;28;20044;-63
2022/09/04 02:15:36;;;;;;;2.58;1.70;;;;;;;18.91;42.82;99825.63;5069262;28;20770;-63
2022/09/04 02:18:25;;;;;;;2.70;1.40;;;;;;;18.81;42.78;99830.97;5073880;28;20079;-63
2022/09/04 02:20:58;;;;;;;4.18;1.60;;;;;;;18.82;43.40;99827.31;5073356;28;20093;-63
2022/09/04 02:23:52;;;;;;;3.97;1.25;;;;;;;18.78;43.12;99830.38;5073220;28;20052;-63
2022/09/04 02:26:29;;;;;;;2.72;1.80;;;;;;;18.75;43.60;99831.50;5064016;28;20064;-65
2022/09/04 02:28:59;;;;;;;4.57;1.80;;;;;;;18.73;44.00;99833.50;5073032;28;20493;-64
2022/09/04 02:31:37;;;;;;;2.45;1.63;;;;;;;18.71;43.88;99827.44;5073904;28;20060;-63
2022/09/04 02:34:11;;;;;;;2.97;1.73;;;;;;;18.70;44.18;99829.28;5072966;28;20460;-62
2022/09/04 02:36:51;;;;;;;2.65;1.67;;;;;;;18.69;43.98;99826.75;5072660;28;20566;-63
2022/09/04 02:39:33;;;;;;;3.42;2.00;;;;;;;18.66;44.82;99832.34;5072752;28;20045;-63
2022/09/04 02:42:16;;;;;;;3.90;2.25;;;;;;;18.64;44.75;99829.81;5074184;28;20447;-62
2022/09/04 02:44:55;;;;;;;;;;;;;;;18.66;43.11;99835.00;5073247;28;20055;-63
2022/09/04 02:47:30;;;;;;;4.40;1.40;;;;;;;18.67;44.24;99834.03;5073848;28;20331;-62
2022/09/04 02:50:25;;;;;;;3.97;1.63;;;;;;;18.60;44.66;99834.59;5073838;28;20060;-62
2022/09/04 02:53:15;;;;;;;5.53;1.92;;;;;;;18.56;44.60;99827.84;5073887;28;20060;-64
2022/09/04 02:56:25;;;;;;;3.58;1.80;;;;;;;18.53;44.74;99836.13;5072463;28;20135;-63
2022/09/04 02:59:15;;;;;;;5.38;2.03;;;;;;;18.49;44.64;99835.56;5011081;28;20064;-63
2022/09/04 03:01:52;;;;;;;4.95;2.10;;;;;;;18.40;45.09;99841.72;4982057;28;20053;-62
2022/09/04 03:04:21;;;;;;;9.93;2.05;;;;;;;18.37;45.29;99847.31;5047660;28;20053;-62
2022/09/04 03:07:31;;;;;;;3.28;2.10;;;;;;;18.28;45.08;99846.28;5072878;28;20056;-62
2022/09/04 03:10:18;;;;;;;4.72;1.95;;;;;;;18.26;44.99;99850.91;5071803;28;20060;-62
2022/09/04 03:12:50;;;;;;;3.72;1.92;;;;;;;18.23;44.64;99853.84;5072212;28;20048;-63
2022/09/04 03:15:38;;;;;;;2.95;1.75;;;;;;;18.14;45.26;99860.00;5073598;28;20048;-62
2022/09/04 03:18:17;;;;;;;4.95;2.20;;;;;;;18.10;45.21;99865.56;5071953;28;20053;-62
2022/09/04 03:20:56;;;;;;;4.88;1.70;;;;;;;18.07;45.90;99865.84;5072262;28;20048;-63
2022/09/04 03:23:39;;;;;;;3.33;2.10;;;;;;;18.05;45.85;99861.63;5071930;28;20060;-63
2022/09/04 03:26:32;;;;;;;4.70;1.90;;;;;;;18.02;45.52;99870.69;5073201;28;20055;-63
2022/09/04 03:29:07;;;;;;;3.38;1.80;;;;;;;18.04;45.06;99867.91;5072886;28;20060;-63
2022/09/04 03:32:12;;;;;;;7.07;2.20;;;;;;;17.95;45.41;99874.88;5072892;28;20088;-64
2022/09/04 03:34:47;;;;;;;2.95;1.67;;;;;;;17.94;46.11;99875.88;5072945;28;20056;-63
2022/09/04 03:37:39;;;;;;;3.55;1.50;;;;;;;17.89;45.87;99873.59;5073010;28;20045;-62
2022/09/04 03:40:36;;;;;;;2.58;1.50;;;;;;;17.84;45.79;99881.13;5072504;28;20045;-62
2022/09/04 03:43:38;;;;;;;3.33;1.75;;;;;;;17.78;45.66;99882.50;5072977;28;20063;-62
2022/09/04 03:46:20;;;;;;;3.67;1.85;;;;;;;17.74;45.68;99885.53;5072845;28;20511;-64
2022/09/04 03:49:13;;;;;;;3.25;1.73;;;;;;;17.69;45.99;99885.94;5072571;28;20508;-63
2022/09/04 03:52:04;;;;;;;2.80;1.65;;;;;;;17.66;45.18;99883.53;5073087;28;20049;-62
2022/09/04 03:55:18;;;;;;;4.13;1.73;;;;;;;17.62;44.92;99887.44;5072899;28;20052;-64
2022/09/04 03:57:58;;;;;;;2.33;1.70;;;;;;;17.67;45.11;99885.22;5036079;28;20049;-63
2022/09/04 04:00:30;;;;;;;3.25;1.70;;;;;;;17.66;45.16;99884.41;5071309;28;20070;-64
2022/09/04 04:03:06;;;;;;;3.53;1.80;;;;;;;17.65;45.45;99892.50;5071515;28;20128;-63
2022/09/04 04:05:42;;;;;;;2.85;1.58;;;;;;;17.64;45.29;99890.81;5071341;28;20201;-63
2022/09/04 04:08:44;;;;;;;4.22;1.60;;;;;;;17.62;45.71;99887.44;5072365;28;20076;-62
2022/09/04 04:11:19;;;;;;;2.55;1.50;;;;;;;17.64;45.53;99890.81;5071106;28;20045;-62
2022/09/04 04:13:58;;;;;;;2.05;1.60;;;;;;;17.61;45.79;99891.94;5072105;28;20059;-63
2022/09/04 04:17:02;;;;;;;4.88;1.73;;;;;;;17.58;45.25;99893.00;5072299;28;20061;-63
2022/09/04 04:19:41;;;;;;;3.47;1.58;;;;;;;17.58;45.19;99893.00;5072103;28;20056;-64
2022/09/04 04:22:19;;;;;;;5.00;1.63;;;;;;;17.54;44.97;99896.91;5072249;28;20060;-63
2022/09/04 04:25:04;;;;;;;4.22;1.42;;;;;;;17.52;45.04;99906.00;5072213;28;20048;-63
2022/09/04 04:27:52;;;;;;;3.78;1.60;;;;;;;17.49;45.27;99900.94;5072218;28;20152;-63
2022/09/04 04:30:19;;;;;;;3.40;1.50;;;;;;;17.52;44.97;99904.19;5071461;28;20075;-62
2022/09/04 04:33:11;;;;;;;4.72;1.65;;;;;;;17.46;45.34;99915.38;5070211;28;20044;-62
2022/09/04 04:35:53;;;;;;;2.30;1.70;;;;;;;17.45;45.66;99908.31;5051780;28;20060;-63
2022/09/04 04:38:43;;;;;;;2.95;1.55;;;;;;;17.41;45.34;99920.19;5051746;28;20049;-62
2022/09/04 04:42:02;;;;;;;1.83;1.40;;;;;;;17.42;45.50;99924.56;5050128;28;20045;-64
2022/09/04 04:47:54;;;;;;;1.40;1.30;;;;;;;17.42;45.04;99920.06;5009206;28;20136;-62
2022/09/04 04:50:44;;;;;;;3.80;1.45;;;;;;;17.43;45.17;99927.09;4992453;28;20117;-62
2022/09/04 04:53:16;;;;;;;2.60;1.20;;;;;;;17.45;45.15;99926.97;5056549;28;20519;-62
2022/09/04 04:55:56;;;;;;;2.17;1.30;;;;;;;17.45;45.08;99929.63;5071534;28;20044;-62
2022/09/04 04:58:57;;;;;;;2.38;1.60;;;;;;;17.47;45.03;99924.16;5071073;28;20048;-62
2022/09/04 05:01:49;;;;;;;1.67;1.30;;;;;;;17.49;45.17;99928.38;5065682;28;20052;-62
2022/09/04 05:04:28;;;;;;;3.05;1.48;;;;;;;17.52;45.68;99922.81;5070929;28;20530;-62
2022/09/04 05:07:36;;;;;;;2.97;1.50;;;;;;;17.51;45.23;99923.81;5069936;28;20041;-63
2022/09/04 05:10:16;;;;;;;1.60;1.40;;;;;;;17.56;45.44;99928.72;5069817;28;20071;-63
2022/09/04 05:13:00;;;;;;;4.38;1.50;;;;;;;17.55;45.43;99927.91;5069893;28;20123;-63
2022/09/04 05:15:47;;;;;;;1.77;1.50;;;;;;;17.55;45.64;99919.91;5070024;28;20045;-62
2022/09/04 05:18:48;;;;;;;3.65;1.25;;;;;;;17.58;45.52;99929.44;5070855;28;20135;-62
2022/09/04 05:21:33;;;;;;;1.85;1.40;;;;;;;17.60;45.42;99934.66;5070745;28;20048;-63
2022/09/04 05:24:12;;;;;;;4.80;1.60;;;;;;;17.58;45.59;99932.13;5070909;28;20052;-62
2022/09/04 05:27:22;;;;;;;1.05;0.98;;;;;;;17.58;45.75;99945.41;5069534;28;20044;-63
2022/09/04 05:30:11;;;;;;;2.35;1.35;;;;;;;17.64;45.82;99944.88;5050034;28;20056;-62
2022/09/04 05:32:55;;;;;;;2.05;1.48;;;;;;;17.64;46.69;99960.03;5070211;28;20048;-63
2022/09/04 05:35:40;;;;;;;3.13;1.80;;;;;;;17.63;46.54;99960.97;5069692;28;20056;-62
2022/09/04 05:38:15;;;;;;;2.22;1.45;;;;;;;17.66;46.71;99961.59;5070693;28;20060;-62
2022/09/04 05:41:13;;;;;;;3.85;1.50;;;;;;;17.65;47.02;99972.38;5070737;28;20049;-62
2022/09/04 05:44:02;;;;;;;2.00;1.35;;;;;;;17.65;46.94;99972.38;5069669;28;20048;-62
2022/09/04 05:46:37;;;;;;;5.32;1.30;;;;;;;17.68;46.52;99974.78;5071014;28;20048;-62
2022/09/04 05:49:34;;;;;;;2.13;1.50;;;;;;;17.66;47.13;99968.72;5070402;28;20049;-61
2022/09/04 05:52:21;;;;;;;6.75;1.55;;;;;;;17.68;46.19;99977.44;5070331;28;20048;-62
2022/09/04 05:55:06;;;;;;;3.85;1.60;;;;;;;17.65;47.00;99983.84;5063169;28;20470;-64
2022/09/04 05:57:38;;;;;;;2.35;1.40;;;;;;;17.68;47.42;99983.59;5059717;28;20044;-64
2022/09/04 06:00:08;;;;;;;1.98;1.63;;;;;;;17.70;47.78;99988.78;5070490;28;20086;-62
2022/09/04 06:03:10;;;;;;;6.75;1.60;;;;;;;17.69;47.78;99992.44;5069404;28;20066;-63
2022/09/04 06:05:57;;;;;;;2.90;1.65;;;;;;;17.74;48.35;100000.03;5069067;28;20060;-64
2022/09/04 06:08:48;;;;;;;1.95;1.40;;;;;;;17.80;48.11;100005.69;5069222;28;20044;-64
2022/09/04 06:11:35;;;;;;;3.35;1.45;;;;;;;17.83;48.25;100002.75;5070365;28;20057;-64
2022/09/04 06:14:36;;;;;;;2.22;1.70;;;;;;;17.89;48.29;100013.88;5070088;28;20048;-64
2022/09/04 06:17:14;;;;;;;3.88;1.60;;;;;;;17.95;48.60;100010.72;5050372;28;20048;-64
2022/09/04 06:19:52;;;;;;;1.63;1.40;;;;;;;18.01;47.88;100012.00;5050106;28;20056;-63
2022/09/04 06:22:37;;;;;;;2.47;1.30;;;;;;;18.03;48.45;100016.22;5050617;28;20068;-64
2022/09/04 06:25:13;;;;;;;1.80;1.17;;;;;;;18.06;48.57;100013.28;5049179;28;20060;-73
2022/09/04 06:27:58;;;;;;;2.60;1.65;;;;;;;18.12;48.49;100027.13;5050110;28;20503;-67
2022/09/04 06:30:49;;;;;;;1.25;1.13;;;;;;;18.20;48.81;100019.28;5059923;28;20040;-63
2022/09/04 06:33:38;;;;;;;4.13;1.33;;;;;;;18.25;48.42;100025.09;5045844;28;20501;-63
2022/09/04 06:36:11;;;;;;;1.75;1.33;;;;;;;18.33;48.19;100019.97;5029691;28;20049;-63
2022/09/04 06:38:59;;;;;;;1.98;1.77;;;;;;;18.38;48.26;100021.38;5050204;28;20071;-64
2022/09/04 06:41:53;;;;;;;2.50;1.27;;;;;;;18.46;48.69;100018.88;5050343;28;20079;-64
2022/09/04 06:44:38;;;;;;;2.53;1.48;;;;;;;18.55;48.13;100015.44;5049994;28;20088;-64
2022/09/04 06:47:30;;;;;;;1.85;1.30;;;;;;;18.62;47.71;100013.91;5060107;28;20041;-64
2022/09/04 06:50:15;;;;;;;2.35;1.50;;;;;;;18.73;47.76;100022.81;5069666;28;20052;-63
2022/09/04 06:53:00;;;;;;;3.05;1.70;;;;;;;18.83;47.60;100025.50;5068471;28;20066;-63
2022/09/04 06:55:53;;;;;;;2.20;1.40;;;;;;;18.92;47.31;100030.03;5070029;28;20048;-63
2022/09/04 06:58:40;;;;;;;2.17;1.45;;;;;;;19.01;47.42;100023.88;5068497;28;20503;-63
2022/09/04 07:01:10;;;;;;;3.28;1.70;;;;;;;19.17;47.42;100032.38;5068620;28;20049;-63
2022/09/04 07:03:49;;;;;;;3.17;1.60;;;;;;;19.24;47.36;100034.34;5070906;28;20045;-63
2022/09/04 07:06:28;;;;;;;1.60;1.50;;;;;;;19.34;47.64;100039.72;5072528;28;20053;-63
2022/09/04 07:09:21;;;;;;;1.88;1.35;;;;;;;19.43;46.91;100043.38;5053288;28;20087;-64
2022/09/04 07:12:09;;;;;;;2.72;1.60;;;;;;;19.55;47.38;100041.41;5052138;28;20060;-64
2022/09/04 07:15:23;;;;;;;3.05;1.65;;;;;;;19.62;46.62;100044.41;5052427;28;20049;-63
2022/09/04 07:18:24;;;;;;;2.33;1.27;;;;;;;19.72;46.79;100036.38;4991604;28;20509;-64
2022/09/04 07:21:14;;;;;;;2.10;1.50;;;;;;;19.82;46.34;100042.56;5053223;28;20041;-63
2022/09/04 07:23:44;;;;;;;3.25;1.30;;;;;;;19.90;46.00;100039.19;5060437;28;20044;-63
2022/09/04 07:26:27;;;;;;;9.80;1.63;;;;;;;19.95;45.81;100038.78;5072419;28;20053;-63
2022/09/04 07:29:28;;;;;;;3.97;1.48;;;;;;;20.02;45.98;100047.91;5071865;28;20056;-65
2022/09/04 07:32:18;;;;;;;2.80;1.58;;;;;;;20.08;45.57;100052.72;5071844;28;20052;-63
2022/09/04 07:34:54;;;;;;;2.22;1.50;;;;;;;20.18;45.67;100058.00;5073072;28;20775;-63
2022/09/04 07:38:02;;;;;;;2.08;1.50;;;;;;;20.20;45.61;100057.88;5073207;28;20060;-64
2022/09/04 07:40:38;;;;;;;2.78;1.52;;;;;;;20.28;45.97;100061.53;5072699;28;20044;-64
2022/09/04 07:43:20;;;;;;;2.55;1.33;;;;;;;20.33;45.62;100069.09;5072898;28;20052;-62
2022/09/04 07:45:57;;;;;;;4.45;1.63;;;;;;;20.42;45.69;100068.25;5072933;28;20079;-63
2022/09/04 07:48:43;;;;;;;2.85;1.50;;;;;;;20.47;46.02;100074.97;5071554;28;20048;-63
2022/09/04 07:51:20;;;;;;;3.22;1.90;;;;;;;20.55;45.78;100075.09;5071572;28;20052;-63
2022/09/04 07:54:10;;;;;;;3.45;1.35;;;;;;;20.60;45.62;100075.53;5072631;28;20048;-64
2022/09/04 07:57:06;;;;;;;2.33;1.58;;;;;;;20.68;45.55;100074.81;5072158;28;20060;-63
2022/09/04 07:59:57;;;;;;;2.08;1.60;;;;;;;20.74;45.40;100076.06;5072394;28;20139;-63
2022/09/04 08:02:55;;;;;;;2.75;1.40;;;;;;;20.84;45.46;100079.53;5072816;28;20060;-64
2022/09/04 08:05:29;;;;;;;2.88;1.52;;;;;;;20.93;45.33;100080.53;5072617;28;20070;-63
2022/09/04 08:08:20;;;;;;;1.92;1.38;;;;;;;20.96;45.39;100078.38;5072662;28;20048;-63
2022/09/04 08:10:46;;;;;;;1.90;1.35;;;;;;;21.07;45.26;100073.81;5071155;28;20049;-64
2022/09/04 08:13:21;;;;;;;1.90;1.38;;;;;;;21.12;45.11;100086.78;5071933;28;20049;-63
2022/09/04 08:15:54;;;;;;;2.13;1.50;;;;;;;21.20;44.90;100079.66;5071569;28;20056;-63
2022/09/04 08:18:34;;;;;;;5.47;1.45;;;;;;;21.25;44.98;100089.94;5070984;28;20049;-63
2022/09/04 08:21:20;;;;;;;2.05;1.30;;;;;;;21.32;45.08;100088.34;5071091;28;20048;-65
2022/09/04 08:24:15;;;;;;;1.83;1.20;;;;;;;21.41;45.01;100091.97;5071109;28;20058;-64
2022/09/04 08:27:03;;;;;;;2.85;1.50;;;;;;;21.51;44.80;100091.91;5072014;28;20070;-63
2022/09/04 08:29:58;;;;;;;2.55;1.45;;;;;;;21.59;44.82;100094.66;5070482;28;20055;-64
2022/09/04 08:32:36;;;;;;;4.03;1.65;;;;;;;21.68;44.72;100103.63;5071732;28;20045;-65
2022/09/04 08:35:34;;;;;;;2.72;1.40;;;;;;;21.77;44.59;100104.59;5071825;28;20568;-63
2022/09/04 08:38:22;;;;;;;2.28;1.50;;;;;;;21.88;44.56;100103.53;5050004;28;20063;-63
2022/09/04 08:41:16;;;;;;;1.80;1.38;;;;;;;21.98;44.71;100108.81;5071667;28;20052;-65
2022/09/04 08:43:49;;;;;;;3.85;1.70;;;;;;;22.10;44.33;100112.09;5071986;28;20063;-65
2022/09/04 08:46:35;;;;;;;3.42;1.75;;;;;;;22.18;44.25;100098.75;5071533;28;20430;-64
2022/09/04 08:49:36;;;;;;;3.47;1.42;;;;;;;22.30;44.74;100099.34;5070362;28;20049;-64
2022/09/04 08:52:19;;;;;;;6.60;1.50;;;;;;;22.44;44.75;100097.94;5051828;28;20041;-63
2022/09/04 08:55:28;;;;;;;3.97;1.40;;;;;;;22.54;44.28;100099.66;5051653;28;20077;-63
2022/09/04 08:58:09;;;;;;;3.40;1.40;;;;;;;22.67;44.33;100094.75;5044182;28;20055;-64
2022/09/04 09:01:06;;;;;;;2.03;1.55;;;;;;;22.82;44.15;100104.88;5051717;28;20060;-63
2022/09/04 09:04:04;;;;;;;1.48;1.30;;;;;;;22.94;44.05;100102.78;5061110;28;20048;-63
2022/09/04 09:06:33;;;;;;;2.10;1.20;;;;;;;23.11;43.80;100104.56;5071286;28;20071;-62
2022/09/04 09:09:18;;;;;;;3.75;1.48;;;;;;;23.20;44.02;100113.47;5069564;28;20048;-64
2022/09/04 09:11:57;;;;;;;2.97;1.48;;;;;;;23.34;44.03;100112.03;5069861;28;20063;-63
2022/09/04 09:15:01;;;;;;;4.28;1.60;;;;;;;23.45;43.78;100118.09;5071197;28;20090;-63
2022/09/04 09:17:52;;;;;;;4.30;1.80;;;;;;;23.58;43.59;100114.97;5069966;28;20068;-66
2022/09/04 09:20:53;;;;;;;5.25;1.48;;;;;;;23.71;43.23;100112.63;5069719;28;20057;-61
2022/09/04 09:23:40;;;;;;;2.10;1.52;;;;;;;23.86;44.12;100112.84;5070850;28;20059;-62
2022/09/04 09:26:27;;;;;;;2.28;1.30;;;;;;;23.98;43.63;100118.72;5069549;28;20080;-64
2022/09/04 09:29:11;;;;;;;3.08;1.42;;;;;;;24.14;43.38;100122.47;5070729;28;20135;-63
2022/09/04 09:31:50;;;;;;;3.75;1.77;;;;;;;24.25;43.66;100113.22;5070665;28;20076;-62
2022/09/04 09:34:26;;;;;;;16.67;2.60;;;;;;;24.39;43.81;100111.69;5070960;28;20068;-63
2022/09/04 09:37:20;;;;;;;3.45;1.50;;;;;;;24.52;44.03;100125.44;5070982;28;20126;-63
2022/09/04 09:40:05;;;;;;;2.28;1.50;;;;;;;24.66;43.32;100117.69;5070128;28;20048;-62
2022/09/04 09:42:56;;;;;;;3.83;1.30;;;;;;;24.81;43.35;100120.50;5070710;28;20048;-62
2022/09/04 09:46:01;;;;;;;2.05;1.40;;;;;;;24.93;43.85;100127.25;5070739;28;20131;-63
2022/09/04 09:48:36;;;;;;;10.00;1.88;;;;;;;25.08;42.23;100119.28;5028057;28;20042;-61
2022/09/04 09:51:17;;;;;;;2.00;1.55;;;;;;;25.22;42.72;100123.09;5065291;28;20048;-63
2022/09/04 09:54:21;;;;;;;1.33;1.13;;;;;;;25.32;42.17;100120.22;5070550;28;20048;-62
2022/09/04 09:57:12;;;;;;;2.35;1.40;;;;;;;25.48;41.58;100121.13;5070551;28;20060;-62
2022/09/04 09:59:50;;;;;;;2.38;1.38;;;;;;;25.63;41.66;100129.31;5070417;28;20082;-64
2022/09/04 10:02:54;;;;;;;2.42;1.65;;;;;;;25.71;41.97;100123.88;5070681;28;20052;-61
2022/09/04 10:05:38;;;;;;;2.97;1.55;;;;;;;25.89;41.46;100115.50;5069410;28;20106;-63
2022/09/04 10:08:43;;;;;;;3.33;1.20;;;;;;;25.98;40.93;100123.53;5070496;28;20052;-64
2022/09/04 10:11:47;;;;;;;2.20;1.15;;;;;;;26.12;40.99;100121.91;5057395;28;20053;-62
2022/09/04 10:14:48;;;;;;;1.98;1.25;;;;;;;26.25;40.79;100121.31;5070053;28;20059;-62
2022/09/04 10:17:53;;;;;;;3.40;1.30;;;;;;;26.39;41.64;100117.00;5059881;28;20059;-63
2022/09/04 10:21:10;;;;;;;2.30;1.30;;;;;;;26.55;41.26;100116.00;5068893;28;20064;-63
2022/09/04 10:23:47;;;;;;;1.30;1.00;;;;;;;26.72;40.38;100113.13;5045440;28;20195;-64
2022/09/04 10:26:43;;;;;;;1.55;1.35;;;;;;;26.85;41.02;100110.63;5070435;28;20067;-63
2022/09/04 10:29:31;;;;;;;1.95;1.17;;;;;;;27.01;41.10;100115.00;5068918;28;20056;-63
2022/09/04 10:32:06;;;;;;;1.73;1.27;;;;;;;27.17;40.83;100118.56;5069557;28;20059;-63
2022/09/04 10:34:49;;;;;;;1.60;1.45;;;;;;;27.30;39.80;100104.34;5070248;28;20045;-63
2022/09/04 10:37:34;;;;;;;;;;;;;;;27.42;40.84;100101.97;5070993;28;20069;-64
2022/09/04 10:40:36;;;;;;;1.17;1.08;;;;;;;27.62;39.91;100104.13;5073975;28;19921;-68
2022/09/04 10:43:15;;;;;;;2.10;1.40;;;;;;;27.77;39.48;100101.34;5072918;28;20102;-64
2022/09/04 10:45:42;;;;;;;;;;;;;;;27.85;40.34;100106.63;5074633;28;20123;-63
2022/09/04 10:48:33;;;;;;;3.08;1.30;;;;;;;28.00;40.40;100100.31;5072169;28;19928;-62
2022/09/04 10:51:26;;;;;;;1.58;1.30;;;;;;;28.14;40.12;100099.38;5054019;28;20045;-61
2022/09/04 10:54:05;;;;;;;1.70;1.13;;;;;;;28.30;39.41;100101.00;5053799;28;20060;-62
2022/09/04 10:56:55;;;;;;;6.05;1.52;;;;;;;28.46;40.31;100099.88;5052595;28;20060;-62
2022/09/04 10:59:51;;;;;;;2.28;1.20;;;;;;;28.66;38.94;100107.28;5053752;28;20075;-61
2022/09/04 11:02:45;;;;;;;1.73;1.23;;;;;;;28.93;39.51;100107.47;5053956;28;20057;-62
2022/09/04 11:05:23;;;;;;;1.30;1.20;;;;;;;29.26;39.86;100108.66;5063592;28;20044;-64
2022/09/04 11:08:11;;;;;;;2.33;1.52;;;;;;;29.66;38.55;100094.41;5073722;28;20071;-62
2022/09/04 11:11:06;;;;;;;1.90;1.20;;;;;;;30.24;38.57;100093.00;5073663;28;20056;-62
2022/09/04 11:13:36;;;;;;;2.03;1.15;;;;;;;30.89;38.38;100099.59;5073928;28;21341;-64
2022/09/04 11:16:20;;;;;;;1.17;1.00;;;;;;;31.50;37.46;100099.34;5073773;28;20049;-63
2022/09/04 11:19:19;;;;;;;1.45;1.05;;;;;;;32.14;36.29;100098.50;5073285;28;20393;-64
2022/09/04 11:21:55;;;;;;;3.40;1.00;;;;;;;32.79;35.12;100090.13;5073149;28;20051;-63
2022/09/04 11:25:18;;;;;;;1.33;1.17;;;;;;;33.38;35.36;100095.09;5073366;28;20052;-62
2022/09/04 11:27:57;;;;;;;1.52;1.10;;;;;;;34.02;32.94;100089.13;5011128;28;20054;-64
2022/09/04 11:30:28;;;;;;;1.50;0.90;;;;;;;34.59;33.30;100086.84;5010813;28;20056;-62
2022/09/04 11:33:09;;;;;;;2.15;1.20;;;;;;;35.11;31.91;100092.56;5048703;28;20048;-64
2022/09/04 11:35:44;;;;;;;1.52;1.10;;;;;;;35.61;31.15;100096.53;5072832;28;20060;-65
2022/09/04 11:38:16;;;;;;;2.20;1.10;;;;;;;36.05;30.66;100089.63;5072570;28;20056;-65
2022/09/04 11:41:03;;;;;;;1.70;1.00;;;;;;;36.46;30.04;100094.91;5071539;28;20213;-62
2022/09/04 11:43:38;;;;;;;1.50;0.98;;;;;;;36.87;30.06;100087.25;5072853;28;20065;-63
2022/09/04 11:46:19;;;;;;;1.73;0.65;;;;;;;37.19;28.89;100088.47;5072861;28;20051;-64
2022/09/04 11:48:46;;;;;;;1.10;1.00;;;;;;;37.52;28.63;100091.25;5070512;28;20651;-62
2022/09/04 11:51:39;;;;;;;1.42;1.02;;;;;;;37.66;26.87;100091.66;5072051;28;20519;-63
2022/09/04 11:54:24;;;;;;;1.10;0.90;;;;;;;37.64;26.65;100091.13;5071656;28;20511;-62
2022/09/04 11:57:18;;;;;;;1.75;0.88;;;;;;;37.33;28.04;100090.78;5071095;28;20044;-63
2022/09/04 12:00:06;;;;;;;1.67;1.13;;;;;;;37.23;28.46;100084.13;5045100;28;20489;-63
2022/09/04 12:02:51;;;;;;;0.93;0.93;;;;;;;37.33;27.70;100079.81;5051566;28;20064;-64
2022/09/04 12:05:38;;;;;;;1.02;0.70;;;;;;;37.46;27.29;100084.88;5051548;28;20520;-64
2022/09/04 12:08:20;;;;;;;0.70;0.70;;;;;;;37.63;27.64;100084.78;5051431;28;20096;-65
2022/09/04 12:11:21;;;;;;;0.75;0.75;;;;;;;37.87;27.76;100083.59;5057959;28;20057;-64
2022/09/04 12:14:14;;;;;;;1.95;0.70;;;;;;;38.12;26.58;100090.41;5071130;28;20716;-63
2022/09/04 12:17:09;;;;;;;1.05;0.80;;;;;;;38.35;26.04;100085.59;5070243;28;20048;-64
2022/09/04 12:20:25;;;;;;;1.27;0.90;;;;;;;38.48;26.40;100084.31;5071259;28;20051;-62
2022/09/04 12:23:17;;;;;;;1.30;0.93;;;;;;;38.67;26.40;100087.44;5008800;28;20068;-64
2022/09/04 12:25:43;;;;;;;1.83;0.90;;;;;;;38.92;25.97;100085.88;5069215;28;20052;-63
2022/09/04 12:28:45;;;;;;;1.10;0.90;;;;;;;39.11;26.62;100089.00;5070766;28;20437;-64
2022/09/04 12:31:33;;;;;;;0.80;0.80;;;;;;;39.44;25.41;100091.53;5071377;28;20048;-63
2022/09/04 12:34:38;;;;;;;1.80;0.77;;;;;;;39.75;24.96;100083.31;5070999;28;20106;-64
2022/09/04 12:37:36;;;;;;;1.83;0.95;;;;;;;39.86;24.41;100087.72;5028494;28;20049;-63
2022/09/04 12:40:40;;;;;;;1.20;0.77;;;;;;;39.67;24.13;100094.88;5070296;28;20056;-64
2022/09/04 12:43:28;;;;;;;1.17;0.70;;;;;;;39.23;23.44;100091.50;5070688;28;20045;-63
2022/09/04 12:46:11;;;;;;;0.70;0.70;;;;;;;38.74;23.04;100090.75;5070786;28;20762;-64
2022/09/04 12:48:57;;;;;;;0.90;0.90;;;;;;;37.94;24.13;100101.50;5069461;28;20052;-63
2022/09/04 12:51:34;;;;;;;2.50;0.80;;;;;;;37.37;23.88;100100.97;5031747;28;1125316;-63
2022/09/04 12:54:33;;;;;;;1.00;0.90;;;;;;;36.63;25.49;100101.16;5069980;28;20520;-63
2022/09/04 12:57:25;;;;;;;0.98;0.88;;;;;;;36.05;25.61;100100.56;5071735;28;20048;-63
2022/09/04 13:00:14;;;;;;;1.75;1.10;;;;;;;35.51;26.33;100107.31;5071041;28;20049;-62
2022/09/04 13:02:49;;;;;;;65.70;4.43;;;;;;;35.16;27.02;100104.50;5071621;28;20049;-63